sensor_id;sensor_type;location;lat;lon;timestamp;P1;durP1;ratioP1;P2;durP2;ratioP2
74894;SDS011;63447;49.446;8.666;2023-02-01T00:04:50;6.40;;;2.80;;
74894;SDS011;63447;49.446;8.666;2023-02-01T00:07:16;5.90;;;2.95;;
74894;SDS011;63447;49.446;8.666;2023-02-01T00:09:44;7.93;;;3.05;;
74894;SDS011;63447;49.446;8.666;2023-02-01T00:14:37;6.82;;;3.30;;
74894;SDS011;63447;49.446;8.666;2023-02-01T00:17:05;6.13;;;3.00;;
74894;SDS011;63447;49.446;8.666;2023-02-01T00:19:36;6.95;;;3.50;;
74894;SDS011;63447;49.446;8.666;2023-02-01T00:22:01;6.85;;;3.40;;
74894;SDS011;63447;49.446;8.666;2023-02-01T00:24:26;8.13;;;3.25;;
74894;SDS011;63447;49.446;8.666;2023-02-01T00:26:54;8.80;;;3.80;;
74894;SDS011;63447;49.446;8.666;2023-02-01T00:29:20;7.78;;;3.60;;
74894;SDS011;63447;49.446;8.666;2023-02-01T00:31:49;7.40;;;3.00;;
74894;SDS011;63447;49.446;8.666;2023-02-01T00:34:16;6.95;;;3.47;;
74894;SDS011;63447;49.446;8.666;2023-02-01T00:36:42;6.72;;;3.08;;
74894;SDS011;63447;49.446;8.666;2023-02-01T00:39:09;11.13;;;3.95;;
74894;SDS011;63447;49.446;8.666;2023-02-01T00:41:34;6.47;;;3.45;;
74894;SDS011;63447;49.446;8.666;2023-02-01T00:44:02;7.60;;;3.55;;
74894;SDS011;63447;49.446;8.666;2023-02-01T00:46:33;6.78;;;3.38;;
74894;SDS011;63447;49.446;8.666;2023-02-01T00:49:03;6.80;;;3.30;;
74894;SDS011;63447;49.446;8.666;2023-02-01T00:51:32;7.53;;;3.63;;
74894;SDS011;63447;49.446;8.666;2023-02-01T00:56:24;6.72;;;3.25;;
74894;SDS011;63447;49.446;8.666;2023-02-01T00:58:52;8.43;;;3.85;;
74894;SDS011;63447;49.446;8.666;2023-02-01T01:03:48;7.40;;;3.78;;
74894;SDS011;63447;49.446;8.666;2023-02-01T01:08:50;8.25;;;3.30;;
74894;SDS011;63447;49.446;8.666;2023-02-01T01:11:18;6.75;;;3.30;;
74894;SDS011;63447;49.446;8.666;2023-02-01T01:13:51;6.70;;;3.50;;
74894;SDS011;63447;49.446;8.666;2023-02-01T01:16:18;6.22;;;3.10;;
74894;SDS011;63447;49.446;8.666;2023-02-01T01:18:44;7.70;;;3.33;;
74894;SDS011;63447;49.446;8.666;2023-02-01T01:21:13;7.10;;;3.08;;
74894;SDS011;63447;49.446;8.666;2023-02-01T01:23:46;7.63;;;3.60;;
74894;SDS011;63447;49.446;8.666;2023-02-01T01:26:16;7.55;;;3.42;;
74894;SDS011;63447;49.446;8.666;2023-02-01T01:28:43;6.95;;;3.53;;
74894;SDS011;63447;49.446;8.666;2023-02-01T01:33:41;7.53;;;3.97;;
74894;SDS011;63447;49.446;8.666;2023-02-01T01:36:09;6.75;;;3.35;;
74894;SDS011;63447;49.446;8.666;2023-02-01T01:38:42;7.82;;;3.88;;
74894;SDS011;63447;49.446;8.666;2023-02-01T01:41:09;9.68;;;3.58;;
74894;SDS011;63447;49.446;8.666;2023-02-01T01:43:57;7.38;;;3.40;;
74894;SDS011;63447;49.446;8.666;2023-02-01T01:46:27;8.63;;;3.72;;
74894;SDS011;63447;49.446;8.666;2023-02-01T01:51:40;6.93;;;3.38;;
74894;SDS011;63447;49.446;8.666;2023-02-01T01:54:47;7.20;;;3.22;;
74894;SDS011;63447;49.446;8.666;2023-02-01T02:00:17;7.65;;;3.20;;
74894;SDS011;63447;49.446;8.666;2023-02-01T02:05:17;6.82;;;3.35;;
74894;SDS011;63447;49.446;8.666;2023-02-01T02:07:43;6.55;;;3.40;;
74894;SDS011;63447;49.446;8.666;2023-02-01T02:10:14;8.48;;;3.90;;
74894;SDS011;63447;49.446;8.666;2023-02-01T02:12:44;7.97;;;3.15;;
74894;SDS011;63447;49.446;8.666;2023-02-01T02:15:13;7.68;;;3.15;;
74894;SDS011;63447;49.446;8.666;2023-02-01T02:17:58;6.65;;;3.20;;
74894;SDS011;63447;49.446;8.666;2023-02-01T02:23:38;7.57;;;3.42;;
74894;SDS011;63447;49.446;8.666;2023-02-01T02:35:12;9.35;;;3.90;;
74894;SDS011;63447;49.446;8.666;2023-02-01T02:38:08;7.95;;;4.05;;
74894;SDS011;63447;49.446;8.666;2023-02-01T02:44:00;6.65;;;3.28;;
74894;SDS011;63447;49.446;8.666;2023-02-01T02:46:57;10.98;;;4.43;;
74894;SDS011;63447;49.446;8.666;2023-02-01T02:50:15;8.05;;;4.18;;
74894;SDS011;63447;49.446;8.666;2023-02-01T02:53:16;7.03;;;3.42;;
74894;SDS011;63447;49.446;8.666;2023-02-01T02:56:07;9.68;;;4.28;;
74894;SDS011;63447;49.446;8.666;2023-02-01T02:58:55;8.25;;;3.85;;
74894;SDS011;63447;49.446;8.666;2023-02-01T03:01:42;9.18;;;3.92;;
74894;SDS011;63447;49.446;8.666;2023-02-01T03:04:27;10.70;;;4.18;;
74894;SDS011;63447;49.446;8.666;2023-02-01T03:06:54;7.43;;;3.67;;
74894;SDS011;63447;49.446;8.666;2023-02-01T03:09:26;9.65;;;3.88;;
74894;SDS011;63447;49.446;8.666;2023-02-01T03:11:59;7.60;;;3.70;;
74894;SDS011;63447;49.446;8.666;2023-02-01T03:14:50;7.53;;;3.83;;
74894;SDS011;63447;49.446;8.666;2023-02-01T03:17:21;8.88;;;3.85;;
74894;SDS011;63447;49.446;8.666;2023-02-01T03:19:52;8.60;;;3.72;;
74894;SDS011;63447;49.446;8.666;2023-02-01T03:22:22;7.68;;;3.55;;
74894;SDS011;63447;49.446;8.666;2023-02-01T03:24:55;7.38;;;3.53;;
74894;SDS011;63447;49.446;8.666;2023-02-01T03:27:27;9.55;;;4.15;;
74894;SDS011;63447;49.446;8.666;2023-02-01T03:32:44;7.53;;;4.22;;
74894;SDS011;63447;49.446;8.666;2023-02-01T03:38:23;8.18;;;3.95;;
74894;SDS011;63447;49.446;8.666;2023-02-01T03:40:53;8.38;;;3.75;;
74894;SDS011;63447;49.446;8.666;2023-02-01T03:43:27;9.82;;;3.70;;
74894;SDS011;63447;49.446;8.666;2023-02-01T03:46:00;8.00;;;4.18;;
74894;SDS011;63447;49.446;8.666;2023-02-01T03:48:28;8.90;;;3.67;;
74894;SDS011;63447;49.446;8.666;2023-02-01T03:50:55;9.52;;;4.25;;
74894;SDS011;63447;49.446;8.666;2023-02-01T03:53:25;7.88;;;3.70;;
74894;SDS011;63447;49.446;8.666;2023-02-01T03:55:54;10.55;;;4.25;;
74894;SDS011;63447;49.446;8.666;2023-02-01T03:58:21;11.80;;;4.90;;
74894;SDS011;63447;49.446;8.666;2023-02-01T04:03:18;9.88;;;4.22;;
74894;SDS011;63447;49.446;8.666;2023-02-01T04:05:44;9.47;;;4.90;;
74894;SDS011;63447;49.446;8.666;2023-02-01T04:08:09;11.40;;;4.23;;
74894;SDS011;63447;49.446;8.666;2023-02-01T04:10:34;9.53;;;4.63;;
74894;SDS011;63447;49.446;8.666;2023-02-01T04:15:28;10.32;;;4.50;;
74894;SDS011;63447;49.446;8.666;2023-02-01T04:17:55;11.35;;;5.38;;
74894;SDS011;63447;49.446;8.666;2023-02-01T04:20:23;10.68;;;4.45;;
74894;SDS011;63447;49.446;8.666;2023-02-01T04:25:16;11.57;;;4.77;;
74894;SDS011;63447;49.446;8.666;2023-02-01T04:27:46;9.52;;;4.85;;
74894;SDS011;63447;49.446;8.666;2023-02-01T04:32:37;10.40;;;4.80;;
74894;SDS011;63447;49.446;8.666;2023-02-01T04:37:28;9.05;;;4.60;;
74894;SDS011;63447;49.446;8.666;2023-02-01T04:39:56;11.07;;;4.75;;
74894;SDS011;63447;49.446;8.666;2023-02-01T04:44:46;9.63;;;4.43;;
74894;SDS011;63447;49.446;8.666;2023-02-01T04:47:12;10.00;;;4.30;;
74894;SDS011;63447;49.446;8.666;2023-02-01T04:52:03;9.87;;;4.10;;
74894;SDS011;63447;49.446;8.666;2023-02-01T04:56:54;10.07;;;4.83;;
74894;SDS011;63447;49.446;8.666;2023-02-01T04:59:24;10.25;;;4.57;;
74894;SDS011;63447;49.446;8.666;2023-02-01T05:01:49;9.82;;;4.75;;
74894;SDS011;63447;49.446;8.666;2023-02-01T05:06:40;9.85;;;4.22;;
74894;SDS011;63447;49.446;8.666;2023-02-01T05:11:36;10.57;;;4.17;;
74894;SDS011;63447;49.446;8.666;2023-02-01T05:16:48;9.40;;;3.85;;
74894;SDS011;63447;49.446;8.666;2023-02-01T05:21:39;9.40;;;4.50;;
74894;SDS011;63447;49.446;8.666;2023-02-01T05:26:41;11.65;;;4.47;;
74894;SDS011;63447;49.446;8.666;2023-02-01T05:29:10;11.27;;;4.70;;
74894;SDS011;63447;49.446;8.666;2023-02-01T05:31:36;10.63;;;4.70;;
74894;SDS011;63447;49.446;8.666;2023-02-01T05:36:27;9.35;;;4.22;;
74894;SDS011;63447;49.446;8.666;2023-02-01T05:38:57;9.32;;;3.90;;
74894;SDS011;63447;49.446;8.666;2023-02-01T05:43:50;12.70;;;3.83;;
74894;SDS011;63447;49.446;8.666;2023-02-01T05:48:43;8.93;;;3.73;;
74894;SDS011;63447;49.446;8.666;2023-02-01T05:51:13;6.82;;;3.30;;
74894;SDS011;63447;49.446;8.666;2023-02-01T05:53:39;7.22;;;3.88;;
74894;SDS011;63447;49.446;8.666;2023-02-01T05:58:30;8.65;;;3.53;;
74894;SDS011;63447;49.446;8.666;2023-02-01T06:00:55;8.50;;;3.95;;
74894;SDS011;63447;49.446;8.666;2023-02-01T06:03:23;10.43;;;5.05;;
74894;SDS011;63447;49.446;8.666;2023-02-01T06:05:48;12.83;;;6.17;;
74894;SDS011;63447;49.446;8.666;2023-02-01T06:08:14;11.03;;;5.63;;
74894;SDS011;63447;49.446;8.666;2023-02-01T06:10:42;10.35;;;4.50;;
74894;SDS011;63447;49.446;8.666;2023-02-01T06:15:33;10.10;;;4.72;;
74894;SDS011;63447;49.446;8.666;2023-02-01T06:18:00;10.77;;;5.13;;
74894;SDS011;63447;49.446;8.666;2023-02-01T06:22:50;9.00;;;3.97;;
74894;SDS011;63447;49.446;8.666;2023-02-01T06:25:18;9.40;;;4.10;;
74894;SDS011;63447;49.446;8.666;2023-02-01T06:30:10;10.07;;;4.50;;
74894;SDS011;63447;49.446;8.666;2023-02-01T06:32:39;9.02;;;3.95;;
74894;SDS011;63447;49.446;8.666;2023-02-01T06:35:05;9.20;;;4.38;;
74894;SDS011;63447;49.446;8.666;2023-02-01T06:37:32;9.48;;;4.65;;
74894;SDS011;63447;49.446;8.666;2023-02-01T06:42:23;24.95;;;12.75;;
74894;SDS011;63447;49.446;8.666;2023-02-01T06:47:14;11.60;;;5.13;;
74894;SDS011;63447;49.446;8.666;2023-02-01T06:49:39;9.27;;;4.43;;
74894;SDS011;63447;49.446;8.666;2023-02-01T06:54:30;9.57;;;4.13;;
74894;SDS011;63447;49.446;8.666;2023-02-01T06:56:58;11.38;;;4.47;;
74894;SDS011;63447;49.446;8.666;2023-02-01T07:01:49;8.60;;;5.13;;
74894;SDS011;63447;49.446;8.666;2023-02-01T07:04:15;26.40;;;12.05;;
74894;SDS011;63447;49.446;8.666;2023-02-01T07:06:40;7.70;;;4.17;;
74894;SDS011;63447;49.446;8.666;2023-02-01T07:11:31;11.38;;;5.03;;
74894;SDS011;63447;49.446;8.666;2023-02-01T07:16:25;11.02;;;4.68;;
74894;SDS011;63447;49.446;8.666;2023-02-01T07:21:19;7.93;;;4.50;;
74894;SDS011;63447;49.446;8.666;2023-02-01T07:23:46;9.02;;;5.00;;
74894;SDS011;63447;49.446;8.666;2023-02-01T07:26:14;9.52;;;5.32;;
74894;SDS011;63447;49.446;8.666;2023-02-01T07:28:43;11.43;;;4.93;;
74894;SDS011;63447;49.446;8.666;2023-02-01T07:31:15;10.88;;;5.13;;
74894;SDS011;63447;49.446;8.666;2023-02-01T07:33:47;11.07;;;5.05;;
74894;SDS011;63447;49.446;8.666;2023-02-01T07:36:16;10.10;;;4.50;;
74894;SDS011;63447;49.446;8.666;2023-02-01T07:38:44;11.38;;;4.65;;
74894;SDS011;63447;49.446;8.666;2023-02-01T07:41:11;11.43;;;4.85;;
74894;SDS011;63447;49.446;8.666;2023-02-01T07:46:03;9.52;;;4.63;;
74894;SDS011;63447;49.446;8.666;2023-02-01T07:48:29;11.85;;;4.50;;
74894;SDS011;63447;49.446;8.666;2023-02-01T07:53:24;11.95;;;5.20;;
74894;SDS011;63447;49.446;8.666;2023-02-01T07:55:52;10.30;;;4.32;;
74894;SDS011;63447;49.446;8.666;2023-02-01T08:00:43;9.80;;;3.73;;
74894;SDS011;63447;49.446;8.666;2023-02-01T08:03:26;8.75;;;3.47;;
74894;SDS011;63447;49.446;8.666;2023-02-01T08:10:48;6.95;;;3.25;;
74894;SDS011;63447;49.446;8.666;2023-02-01T08:15:39;9.00;;;3.50;;
74894;SDS011;63447;49.446;8.666;2023-02-01T08:18:07;8.60;;;3.63;;
74894;SDS011;63447;49.446;8.666;2023-02-01T08:20:36;8.25;;;3.70;;
74894;SDS011;63447;49.446;8.666;2023-02-01T08:23:03;8.82;;;3.35;;
74894;SDS011;63447;49.446;8.666;2023-02-01T08:25:33;7.75;;;2.92;;
74894;SDS011;63447;49.446;8.666;2023-02-01T08:27:59;11.75;;;3.78;;
74894;SDS011;63447;49.446;8.666;2023-02-01T08:30:25;9.70;;;3.72;;
74894;SDS011;63447;49.446;8.666;2023-02-01T08:32:52;8.63;;;3.45;;
74894;SDS011;63447;49.446;8.666;2023-02-01T08:35:20;7.10;;;3.00;;
74894;SDS011;63447;49.446;8.666;2023-02-01T08:37:45;7.97;;;3.13;;
74894;SDS011;63447;49.446;8.666;2023-02-01T08:40:11;8.33;;;3.17;;
74894;SDS011;63447;49.446;8.666;2023-02-01T08:42:38;9.73;;;3.55;;
74894;SDS011;63447;49.446;8.666;2023-02-01T08:45:23;11.57;;;4.57;;
74894;SDS011;63447;49.446;8.666;2023-02-01T08:47:51;9.38;;;3.50;;
74894;SDS011;63447;49.446;8.666;2023-02-01T08:50:17;9.65;;;3.67;;
74894;SDS011;63447;49.446;8.666;2023-02-01T08:52:44;10.15;;;4.00;;
74894;SDS011;63447;49.446;8.666;2023-02-01T08:55:10;9.90;;;4.22;;
74894;SDS011;63447;49.446;8.666;2023-02-01T08:57:36;9.65;;;4.15;;
74894;SDS011;63447;49.446;8.666;2023-02-01T09:02:29;10.07;;;3.60;;
74894;SDS011;63447;49.446;8.666;2023-02-01T09:07:21;12.40;;;4.55;;
74894;SDS011;63447;49.446;8.666;2023-02-01T09:12:14;10.70;;;3.63;;
74894;SDS011;63447;49.446;8.666;2023-02-01T09:14:44;9.35;;;3.72;;
74894;SDS011;63447;49.446;8.666;2023-02-01T09:17:09;10.25;;;3.85;;
74894;SDS011;63447;49.446;8.666;2023-02-01T09:22:00;13.67;;;3.53;;
74894;SDS011;63447;49.446;8.666;2023-02-01T09:26:50;9.13;;;3.43;;
74894;SDS011;63447;49.446;8.666;2023-02-01T09:31:41;6.75;;;3.03;;
74894;SDS011;63447;49.446;8.666;2023-02-01T09:36:33;11.88;;;3.03;;
74894;SDS011;63447;49.446;8.666;2023-02-01T09:38:59;11.48;;;3.22;;
74894;SDS011;63447;49.446;8.666;2023-02-01T09:47:19;9.60;;;3.00;;
74894;SDS011;63447;49.446;8.666;2023-02-01T09:49:56;11.38;;;2.60;;
74894;SDS011;63447;49.446;8.666;2023-02-01T09:52:29;15.15;;;3.33;;
74894;SDS011;63447;49.446;8.666;2023-02-01T09:55:04;9.15;;;3.42;;
74894;SDS011;63447;49.446;8.666;2023-02-01T10:00:53;8.40;;;3.03;;
74894;SDS011;63447;49.446;8.666;2023-02-01T10:03:32;7.40;;;2.33;;
74894;SDS011;63447;49.446;8.666;2023-02-01T10:11:52;7.55;;;2.90;;
74894;SDS011;63447;49.446;8.666;2023-02-01T10:16:55;9.85;;;3.30;;
74894;SDS011;63447;49.446;8.666;2023-02-01T10:19:54;10.45;;;3.05;;
74894;SDS011;63447;49.446;8.666;2023-02-01T10:22:45;9.07;;;2.70;;
74894;SDS011;63447;49.446;8.666;2023-02-01T10:27:49;11.43;;;2.90;;
74894;SDS011;63447;49.446;8.666;2023-02-01T10:30:23;9.57;;;2.60;;
74894;SDS011;63447;49.446;8.666;2023-02-01T10:32:56;9.55;;;2.45;;
74894;SDS011;63447;49.446;8.666;2023-02-01T10:35:31;7.70;;;2.38;;
74894;SDS011;63447;49.446;8.666;2023-02-01T10:38:03;7.38;;;2.05;;
74894;SDS011;63447;49.446;8.666;2023-02-01T10:40:38;14.30;;;2.75;;
74894;SDS011;63447;49.446;8.666;2023-02-01T10:43:07;11.57;;;2.17;;
74894;SDS011;63447;49.446;8.666;2023-02-01T10:45:34;9.68;;;2.42;;
74894;SDS011;63447;49.446;8.666;2023-02-01T10:48:02;9.63;;;1.98;;
74894;SDS011;63447;49.446;8.666;2023-02-01T10:50:50;9.30;;;2.08;;
74894;SDS011;63447;49.446;8.666;2023-02-01T10:53:29;10.55;;;2.25;;
74894;SDS011;63447;49.446;8.666;2023-02-01T10:56:05;10.88;;;2.83;;
74894;SDS011;63447;49.446;8.666;2023-02-01T10:58:32;6.97;;;2.13;;
74894;SDS011;63447;49.446;8.666;2023-02-01T11:09:39;9.85;;;2.25;;
74894;SDS011;63447;49.446;8.666;2023-02-01T11:14:57;11.70;;;2.08;;
74894;SDS011;63447;49.446;8.666;2023-02-01T11:17:16;11.07;;;2.40;;
74894;SDS011;63447;49.446;8.666;2023-02-01T11:19:48;11.20;;;2.42;;
74894;SDS011;63447;49.446;8.666;2023-02-01T11:22:24;8.48;;;2.08;;
74894;SDS011;63447;49.446;8.666;2023-02-01T11:24:51;9.77;;;1.98;;
74894;SDS011;63447;49.446;8.666;2023-02-01T11:27:20;10.07;;;2.00;;
74894;SDS011;63447;49.446;8.666;2023-02-01T11:29:49;12.13;;;2.40;;
74894;SDS011;63447;49.446;8.666;2023-02-01T11:32:17;13.40;;;2.13;;
74894;SDS011;63447;49.446;8.666;2023-02-01T11:37:14;7.45;;;2.00;;
74894;SDS011;63447;49.446;8.666;2023-02-01T11:39:52;8.90;;;2.08;;
74894;SDS011;63447;49.446;8.666;2023-02-01T11:42:24;8.20;;;2.20;;
74894;SDS011;63447;49.446;8.666;2023-02-01T11:44:50;8.55;;;1.98;;
74894;SDS011;63447;49.446;8.666;2023-02-01T11:47:41;10.38;;;2.33;;
74894;SDS011;63447;49.446;8.666;2023-02-01T11:50:17;9.75;;;1.77;;
74894;SDS011;63447;49.446;8.666;2023-02-01T11:53:09;11.10;;;2.15;;
74894;SDS011;63447;49.446;8.666;2023-02-01T12:01:47;10.82;;;2.22;;
74894;SDS011;63447;49.446;8.666;2023-02-01T12:07:04;9.23;;;2.33;;
74894;SDS011;63447;49.446;8.666;2023-02-01T12:37:50;8.93;;;1.90;;
74894;SDS011;63447;49.446;8.666;2023-02-01T12:40:55;9.30;;;1.98;;
74894;SDS011;63447;49.446;8.666;2023-02-01T12:43:34;7.95;;;1.83;;
74894;SDS011;63447;49.446;8.666;2023-02-01T12:46:11;9.65;;;1.88;;
74894;SDS011;63447;49.446;8.666;2023-02-01T12:49:05;11.23;;;2.22;;
74894;SDS011;63447;49.446;8.666;2023-02-01T12:51:44;9.90;;;2.28;;
74894;SDS011;63447;49.446;8.666;2023-02-01T12:56:53;13.32;;;2.42;;
74894;SDS011;63447;49.446;8.666;2023-02-01T12:59:27;9.15;;;2.13;;
74894;SDS011;63447;49.446;8.666;2023-02-01T13:02:04;12.73;;;2.35;;
74894;SDS011;63447;49.446;8.666;2023-02-01T13:07:34;11.27;;;2.20;;
74894;SDS011;63447;49.446;8.666;2023-02-01T13:10:17;7.00;;;1.83;;
74894;SDS011;63447;49.446;8.666;2023-02-01T13:12:51;9.35;;;2.38;;
74894;SDS011;63447;49.446;8.666;2023-02-01T13:15:28;14.27;;;2.25;;
74894;SDS011;63447;49.446;8.666;2023-02-01T13:18:00;9.48;;;1.75;;
74894;SDS011;63447;49.446;8.666;2023-02-01T13:20:34;9.18;;;2.67;;
74894;SDS011;63447;49.446;8.666;2023-02-01T13:23:46;8.93;;;2.10;;
74894;SDS011;63447;49.446;8.666;2023-02-01T13:25:55;9.27;;;2.08;;
74894;SDS011;63447;49.446;8.666;2023-02-01T13:36:41;11.90;;;2.05;;
74894;SDS011;63447;49.446;8.666;2023-02-01T13:42:16;12.02;;;2.20;;
74894;SDS011;63447;49.446;8.666;2023-02-01T13:44:47;9.15;;;2.03;;
74894;SDS011;63447;49.446;8.666;2023-02-01T13:47:34;12.18;;;2.25;;
74894;SDS011;63447;49.446;8.666;2023-02-01T13:50:13;10.90;;;1.83;;
74894;SDS011;63447;49.446;8.666;2023-02-01T13:53:01;12.55;;;2.08;;
74894;SDS011;63447;49.446;8.666;2023-02-01T13:55:35;8.65;;;1.92;;
74894;SDS011;63447;49.446;8.666;2023-02-01T13:59:06;9.00;;;2.00;;
74894;SDS011;63447;49.446;8.666;2023-02-01T14:06:32;12.05;;;1.90;;
74894;SDS011;63447;49.446;8.666;2023-02-01T14:12:04;8.98;;;1.98;;
74894;SDS011;63447;49.446;8.666;2023-02-01T14:15:21;8.38;;;2.42;;
74894;SDS011;63447;49.446;8.666;2023-02-01T14:17:51;7.63;;;1.77;;
74894;SDS011;63447;49.446;8.666;2023-02-01T14:23:15;10.25;;;1.90;;
74894;SDS011;63447;49.446;8.666;2023-02-01T14:25:42;8.13;;;1.65;;
74894;SDS011;63447;49.446;8.666;2023-02-01T14:28:19;6.70;;;1.60;;
74894;SDS011;63447;49.446;8.666;2023-02-01T14:30:53;5.97;;;1.98;;
74894;SDS011;63447;49.446;8.666;2023-02-01T14:33:26;8.80;;;1.73;;
74894;SDS011;63447;49.446;8.666;2023-02-01T14:36:03;8.35;;;2.15;;
74894;SDS011;63447;49.446;8.666;2023-02-01T14:38:32;7.65;;;1.92;;
74894;SDS011;63447;49.446;8.666;2023-02-01T14:41:21;12.60;;;2.20;;
74894;SDS011;63447;49.446;8.666;2023-02-01T14:44:36;8.88;;;2.10;;
74894;SDS011;63447;49.446;8.666;2023-02-01T14:58:02;11.98;;;2.38;;
74894;SDS011;63447;49.446;8.666;2023-02-01T15:00:31;10.75;;;2.33;;
74894;SDS011;63447;49.446;8.666;2023-02-01T15:03:15;14.82;;;2.85;;
74894;SDS011;63447;49.446;8.666;2023-02-01T15:05:54;12.50;;;3.33;;
74894;SDS011;63447;49.446;8.666;2023-02-01T15:08:29;12.23;;;2.50;;
74894;SDS011;63447;49.446;8.666;2023-02-01T15:11:01;9.38;;;2.80;;
74894;SDS011;63447;49.446;8.666;2023-02-01T15:13:33;9.27;;;2.03;;
74894;SDS011;63447;49.446;8.666;2023-02-01T15:16:03;9.13;;;2.70;;
74894;SDS011;63447;49.446;8.666;2023-02-01T15:18:34;10.57;;;2.40;;
74894;SDS011;63447;49.446;8.666;2023-02-01T15:21:03;11.30;;;1.90;;
74894;SDS011;63447;49.446;8.666;2023-02-01T15:23:31;8.63;;;2.00;;
74894;SDS011;63447;49.446;8.666;2023-02-01T15:26:00;13.30;;;3.55;;
74894;SDS011;63447;49.446;8.666;2023-02-01T15:28:27;10.07;;;2.08;;
74894;SDS011;63447;49.446;8.666;2023-02-01T15:30:57;7.88;;;1.73;;
74894;SDS011;63447;49.446;8.666;2023-02-01T15:33:28;9.00;;;2.00;;
74894;SDS011;63447;49.446;8.666;2023-02-01T15:36:10;8.77;;;2.00;;
74894;SDS011;63447;49.446;8.666;2023-02-01T15:38:42;9.35;;;2.10;;
74894;SDS011;63447;49.446;8.666;2023-02-01T15:41:21;8.45;;;1.88;;
74894;SDS011;63447;49.446;8.666;2023-02-01T15:46:28;8.47;;;1.90;;
74894;SDS011;63447;49.446;8.666;2023-02-01T15:48:59;7.60;;;2.15;;
74894;SDS011;63447;49.446;8.666;2023-02-01T15:51:26;9.00;;;1.80;;
74894;SDS011;63447;49.446;8.666;2023-02-01T15:54:02;12.35;;;2.05;;
74894;SDS011;63447;49.446;8.666;2023-02-01T15:56:39;11.75;;;2.00;;
74894;SDS011;63447;49.446;8.666;2023-02-01T15:59:13;8.80;;;1.67;;
74894;SDS011;63447;49.446;8.666;2023-02-01T16:01:41;11.18;;;1.80;;
74894;SDS011;63447;49.446;8.666;2023-02-01T16:06:45;8.35;;;2.00;;
74894;SDS011;63447;49.446;8.666;2023-02-01T16:09:38;10.55;;;1.90;;
74894;SDS011;63447;49.446;8.666;2023-02-01T16:12:20;10.80;;;2.05;;
74894;SDS011;63447;49.446;8.666;2023-02-01T16:14:55;7.72;;;1.55;;
74894;SDS011;63447;49.446;8.666;2023-02-01T16:17:21;7.40;;;1.73;;
74894;SDS011;63447;49.446;8.666;2023-02-01T16:19:51;10.82;;;2.05;;
74894;SDS011;63447;49.446;8.666;2023-02-01T16:22:16;9.38;;;1.85;;
74894;SDS011;63447;49.446;8.666;2023-02-01T16:24:44;15.23;;;1.93;;
74894;SDS011;63447;49.446;8.666;2023-02-01T16:27:11;8.35;;;1.73;;
74894;SDS011;63447;49.446;8.666;2023-02-01T16:29:37;10.05;;;2.15;;
74894;SDS011;63447;49.446;8.666;2023-02-01T16:32:02;11.02;;;1.90;;
74894;SDS011;63447;49.446;8.666;2023-02-01T16:34:29;10.98;;;1.58;;
74894;SDS011;63447;49.446;8.666;2023-02-01T16:36:54;9.88;;;1.58;;
74894;SDS011;63447;49.446;8.666;2023-02-01T16:39:22;9.93;;;2.10;;
74894;SDS011;63447;49.446;8.666;2023-02-01T16:41:55;6.40;;;1.73;;
74894;SDS011;63447;49.446;8.666;2023-02-01T16:44:24;8.73;;;1.85;;
74894;SDS011;63447;49.446;8.666;2023-02-01T16:46:50;10.30;;;1.70;;
74894;SDS011;63447;49.446;8.666;2023-02-01T16:49:20;11.02;;;2.00;;
74894;SDS011;63447;49.446;8.666;2023-02-01T16:51:50;10.30;;;2.25;;
74894;SDS011;63447;49.446;8.666;2023-02-01T16:54:18;7.82;;;1.80;;
74894;SDS011;63447;49.446;8.666;2023-02-01T16:56:46;6.45;;;1.88;;
74894;SDS011;63447;49.446;8.666;2023-02-01T16:59:12;10.45;;;1.92;;
74894;SDS011;63447;49.446;8.666;2023-02-01T17:01:40;8.07;;;1.83;;
74894;SDS011;63447;49.446;8.666;2023-02-01T17:04:07;7.75;;;2.20;;
74894;SDS011;63447;49.446;8.666;2023-02-01T17:06:36;10.93;;;2.13;;
74894;SDS011;63447;49.446;8.666;2023-02-01T17:09:02;7.20;;;1.85;;
74894;SDS011;63447;49.446;8.666;2023-02-01T17:11:29;11.38;;;2.38;;
74894;SDS011;63447;49.446;8.666;2023-02-01T17:14:00;11.60;;;2.13;;
74894;SDS011;63447;49.446;8.666;2023-02-01T17:16:34;12.20;;;2.70;;
74894;SDS011;63447;49.446;8.666;2023-02-01T17:19:05;10.90;;;2.55;;
74894;SDS011;63447;49.446;8.666;2023-02-01T17:21:39;14.35;;;4.13;;
74894;SDS011;63447;49.446;8.666;2023-02-01T17:24:12;11.95;;;2.63;;
74894;SDS011;63447;49.446;8.666;2023-02-01T17:26:39;8.93;;;2.20;;
74894;SDS011;63447;49.446;8.666;2023-02-01T17:29:04;9.55;;;2.45;;
74894;SDS011;63447;49.446;8.666;2023-02-01T17:31:33;11.10;;;2.00;;
74894;SDS011;63447;49.446;8.666;2023-02-01T17:34:06;7.88;;;1.60;;
74894;SDS011;63447;49.446;8.666;2023-02-01T17:36:35;8.95;;;2.08;;
74894;SDS011;63447;49.446;8.666;2023-02-01T17:39:03;10.90;;;2.60;;
74894;SDS011;63447;49.446;8.666;2023-02-01T17:41:28;9.23;;;2.63;;
74894;SDS011;63447;49.446;8.666;2023-02-01T17:43:56;14.48;;;3.45;;
74894;SDS011;63447;49.446;8.666;2023-02-01T17:46:24;9.95;;;3.05;;
74894;SDS011;63447;49.446;8.666;2023-02-01T17:48:52;13.90;;;2.78;;
74894;SDS011;63447;49.446;8.666;2023-02-01T17:51:25;9.93;;;2.58;;
74894;SDS011;63447;49.446;8.666;2023-02-01T17:53:52;8.27;;;1.88;;
74894;SDS011;63447;49.446;8.666;2023-02-01T17:56:21;10.88;;;2.30;;
74894;SDS011;63447;49.446;8.666;2023-02-01T17:58:47;11.13;;;2.05;;
74894;SDS011;63447;49.446;8.666;2023-02-01T18:01:14;8.35;;;2.40;;
74894;SDS011;63447;49.446;8.666;2023-02-01T18:03:42;10.07;;;2.40;;
74894;SDS011;63447;49.446;8.666;2023-02-01T18:06:14;13.30;;;3.05;;
74894;SDS011;63447;49.446;8.666;2023-02-01T18:08:41;16.45;;;3.20;;
74894;SDS011;63447;49.446;8.666;2023-02-01T18:11:13;14.27;;;3.63;;
74894;SDS011;63447;49.446;8.666;2023-02-01T18:13:41;14.95;;;4.40;;
74894;SDS011;63447;49.446;8.666;2023-02-01T18:16:11;11.85;;;3.45;;
74894;SDS011;63447;49.446;8.666;2023-02-01T18:19:01;13.32;;;3.97;;
74894;SDS011;63447;49.446;8.666;2023-02-01T18:21:29;11.82;;;2.92;;
74894;SDS011;63447;49.446;8.666;2023-02-01T18:23:57;12.30;;;3.47;;
74894;SDS011;63447;49.446;8.666;2023-02-01T18:26:28;10.82;;;2.90;;
74894;SDS011;63447;49.446;8.666;2023-02-01T18:28:53;10.43;;;2.55;;
74894;SDS011;63447;49.446;8.666;2023-02-01T18:31:23;12.32;;;2.85;;
74894;SDS011;63447;49.446;8.666;2023-02-01T18:33:51;14.15;;;3.70;;
74894;SDS011;63447;49.446;8.666;2023-02-01T18:36:20;9.80;;;2.95;;
74894;SDS011;63447;49.446;8.666;2023-02-01T18:38:50;11.55;;;2.85;;
74894;SDS011;63447;49.446;8.666;2023-02-01T18:41:18;11.48;;;2.92;;
74894;SDS011;63447;49.446;8.666;2023-02-01T18:43:47;9.32;;;2.28;;
74894;SDS011;63447;49.446;8.666;2023-02-01T18:46:16;8.20;;;2.35;;
74894;SDS011;63447;49.446;8.666;2023-02-01T18:48:42;14.10;;;3.03;;
74894;SDS011;63447;49.446;8.666;2023-02-01T18:51:16;9.88;;;2.38;;
74894;SDS011;63447;49.446;8.666;2023-02-01T18:53:47;7.35;;;2.40;;
74894;SDS011;63447;49.446;8.666;2023-02-01T18:56:20;12.63;;;3.20;;
74894;SDS011;63447;49.446;8.666;2023-02-01T18:58:45;12.30;;;3.53;;
74894;SDS011;63447;49.446;8.666;2023-02-01T19:03:39;10.30;;;2.55;;
74894;SDS011;63447;49.446;8.666;2023-02-01T19:06:05;12.20;;;2.45;;
74894;SDS011;63447;49.446;8.666;2023-02-01T19:08:33;10.90;;;2.50;;
74894;SDS011;63447;49.446;8.666;2023-02-01T19:10:59;13.88;;;2.60;;
74894;SDS011;63447;49.446;8.666;2023-02-01T19:13:28;11.80;;;2.80;;
74894;SDS011;63447;49.446;8.666;2023-02-01T19:15:55;10.50;;;2.28;;
74894;SDS011;63447;49.446;8.666;2023-02-01T19:18:21;8.43;;;2.60;;
74894;SDS011;63447;49.446;8.666;2023-02-01T19:20:47;9.00;;;3.30;;
74894;SDS011;63447;49.446;8.666;2023-02-01T19:23:17;8.80;;;2.35;;
74894;SDS011;63447;49.446;8.666;2023-02-01T19:25:46;10.75;;;2.38;;
74894;SDS011;63447;49.446;8.666;2023-02-01T19:28:15;9.25;;;2.40;;